createdAt,value
2018-07-17T00:00:11.543Z,55.10
2018-07-17T00:02:39.765Z,52.30
2018-07-17T00:05:08.557Z,53.27
2018-07-17T00:07:36.870Z,51.97
2018-07-17T00:10:05.177Z,52.57
2018-07-17T00:12:33.319Z,51.87
2018-07-17T00:15:01.495Z,52.53
2018-07-17T00:17:29.618Z,52.87
2018-07-17T00:19:57.789Z,55.17
2018-07-17T00:22:25.905Z,52.20
2018-07-17T00:24:54.019Z,53.07
2018-07-17T00:27:22.178Z,52.80
2018-07-17T00:29:50.300Z,52.97
2018-07-17T00:32:18.433Z,52.07
2018-07-17T00:34:46.549Z,55.07
2018-07-17T00:37:14.658Z,53.40
2018-07-17T00:39:42.777Z,55.17
2018-07-17T00:42:10.883Z,52.27
2018-07-17T00:44:38.982Z,53.93
2018-07-17T00:47:07.097Z,53.97
2018-07-17T00:49:35.204Z,51.90
2018-07-17T00:52:03.374Z,55.40
2018-07-17T00:54:31.469Z,53.97
2018-07-17T00:56:59.589Z,54.10
2018-07-17T00:59:27.713Z,54.90
2018-07-17T01:02:01.142Z,52.17
2018-07-17T01:04:34.457Z,54.17
2018-07-17T01:07:07.878Z,54.47
2018-07-17T01:09:41.470Z,53.63
2018-07-17T01:12:12.811Z,54.17
2018-07-17T01:14:52.810Z,52.20
2018-07-17T01:17:21.304Z,52.60
2018-07-17T01:19:49.413Z,53.30
2018-07-17T01:22:17.528Z,53.70
2018-07-17T01:24:45.638Z,55.23
2018-07-17T01:27:13.825Z,57.10
2018-07-17T01:29:41.955Z,53.67
2018-07-17T01:32:10.051Z,54.70
2018-07-17T01:34:38.184Z,54.40
2018-07-17T01:37:06.279Z,55.87
2018-07-17T01:39:34.417Z,56.57
2018-07-17T01:42:02.506Z,54.40
2018-07-17T01:44:30.609Z,54.57
2018-07-17T01:46:58.722Z,54.67
2018-07-17T01:49:26.866Z,54.80
2018-07-17T01:51:54.975Z,52.67
2018-07-17T01:54:23.081Z,54.83
2018-07-17T01:56:51.192Z,54.40
2018-07-17T01:59:19.318Z,55.73
2018-07-17T02:01:47.418Z,54.43
2018-07-17T02:04:15.519Z,54.30
2018-07-17T02:06:43.594Z,53.63
2018-07-17T02:09:12.505Z,54.90
2018-07-17T02:11:40.592Z,54.73
2018-07-17T02:14:08.771Z,56.63
2018-07-17T02:16:36.869Z,54.73
2018-07-17T02:19:05.058Z,55.10
2018-07-17T02:21:33.148Z,53.20
2018-07-17T02:24:01.261Z,52.30
2018-07-17T02:26:29.381Z,56.87
2018-07-17T02:28:57.481Z,52.43
2018-07-17T02:31:25.727Z,55.30
2018-07-17T02:33:53.806Z,52.37
2018-07-17T02:36:21.893Z,54.50
2018-07-17T02:38:49.988Z,53.17
2018-07-17T02:41:18.063Z,53.80
2018-07-17T02:43:46.154Z,52.30
2018-07-17T02:46:14.258Z,52.47
2018-07-17T02:48:42.351Z,54.77
2018-07-17T02:51:10.578Z,53.70
2018-07-17T02:53:38.674Z,54.67
2018-07-17T02:56:06.782Z,53.30
2018-07-17T02:58:34.922Z,53.17
2018-07-17T03:01:03.059Z,54.60
2018-07-17T03:03:31.158Z,57.40
2018-07-17T03:05:59.264Z,53.47
2018-07-17T03:08:27.356Z,55.90
2018-07-17T03:10:55.450Z,52.07
2018-07-17T03:13:23.542Z,57.03
2018-07-17T03:15:51.634Z,54.03
2018-07-17T03:18:19.722Z,53.20
2018-07-17T03:20:47.814Z,53.13
2018-07-17T03:23:15.906Z,53.40
2018-07-17T03:25:43.990Z,53.77
2018-07-17T03:28:12.103Z,54.53
2018-07-17T03:30:40.241Z,53.47
2018-07-17T03:33:08.336Z,54.00
2018-07-17T03:35:36.485Z,54.67
2018-07-17T03:38:04.643Z,56.20
2018-07-17T03:40:32.740Z,56.40
2018-07-17T03:43:00.837Z,56.60
2018-07-17T03:45:28.933Z,59.27
2018-07-17T03:47:57.026Z,53.47
2018-07-17T03:50:25.109Z,54.77
2018-07-17T03:52:53.193Z,57.20
2018-07-17T03:55:21.298Z,56.30
2018-07-17T03:57:49.401Z,55.73
2018-07-17T04:00:17.499Z,58.30
2018-07-17T04:02:45.635Z,56.20
2018-07-17T04:05:13.747Z,58.03
2018-07-17T04:07:41.892Z,57.13
2018-07-17T04:10:09.989Z,54.90
2018-07-17T04:12:38.152Z,57.43
2018-07-17T04:15:06.260Z,55.10
2018-07-17T04:17:34.395Z,55.70
2018-07-17T04:20:02.486Z,55.53
2018-07-17T04:22:30.601Z,54.57
2018-07-17T04:24:58.714Z,58.17
2018-07-17T04:27:26.906Z,54.40
2018-07-17T04:29:55.270Z,56.30
2018-07-17T04:32:23.258Z,53.50
2018-07-17T04:34:51.384Z,55.93
2018-07-17T04:37:19.487Z,55.30
2018-07-17T04:39:47.590Z,54.23
2018-07-17T04:42:15.691Z,56.83
2018-07-17T04:44:43.805Z,55.33
2018-07-17T04:47:11.901Z,55.40
2018-07-17T04:49:40.170Z,54.70
2018-07-17T04:52:08.273Z,54.77
2018-07-17T04:54:36.389Z,58.03
2018-07-17T04:57:04.562Z,54.17
2018-07-17T04:59:32.666Z,54.83
2018-07-17T05:02:00.798Z,58.60
2018-07-17T05:04:28.849Z,56.23
2018-07-17T05:06:57.057Z,55.87
2018-07-17T05:09:25.131Z,58.37
2018-07-17T05:11:53.302Z,56.80
2018-07-17T05:14:21.407Z,55.30
2018-07-17T05:16:49.476Z,56.33
2018-07-17T05:19:17.561Z,55.67
2018-07-17T05:21:45.750Z,56.00
2018-07-17T05:24:13.853Z,60.30
2018-07-17T05:26:41.987Z,58.50
2018-07-17T05:29:10.102Z,60.80
2018-07-17T05:31:38.210Z,53.90
2018-07-17T05:34:06.355Z,55.30
2018-07-17T05:36:34.487Z,56.50
2018-07-17T05:39:02.629Z,56.90
2018-07-17T05:41:30.698Z,59.80
2018-07-17T05:43:58.798Z,55.57
2018-07-17T05:46:26.918Z,57.40
2018-07-17T05:48:54.991Z,55.97
2018-07-17T05:51:23.091Z,56.53
2018-07-17T05:53:51.177Z,58.27
2018-07-17T05:56:19.260Z,58.77
2018-07-17T05:58:47.353Z,55.63
2018-07-17T06:01:15.459Z,57.07
2018-07-17T06:03:43.553Z,56.67
2018-07-17T06:06:11.650Z,60.97
2018-07-17T06:08:39.757Z,57.77
2018-07-17T06:11:07.845Z,54.90
2018-07-17T06:13:36.958Z,61.43
2018-07-17T06:16:05.046Z,55.60
2018-07-17T06:18:33.153Z,54.57
2018-07-17T06:21:01.289Z,58.97
2018-07-17T06:23:29.405Z,56.37
2018-07-17T06:25:57.502Z,60.80
2018-07-17T06:28:25.616Z,56.70
2018-07-17T06:30:53.732Z,58.23
2018-07-17T06:33:21.833Z,57.20
2018-07-17T06:35:49.957Z,54.50
2018-07-17T06:38:18.061Z,57.03
2018-07-17T06:40:46.162Z,54.57
2018-07-17T06:43:14.267Z,55.73
2018-07-17T06:45:42.398Z,53.23
2018-07-17T06:48:10.506Z,53.20
2018-07-17T06:50:38.786Z,53.07
2018-07-17T06:53:07.384Z,59.37
2018-07-17T06:55:35.526Z,58.23
2018-07-17T06:58:04.024Z,52.70
2018-07-17T07:00:32.119Z,53.53
2018-07-17T07:03:00.208Z,54.67
2018-07-17T07:05:28.314Z,55.13
2018-07-17T07:07:56.422Z,53.53
2018-07-17T07:10:24.522Z,53.57
2018-07-17T07:12:52.627Z,53.30
2018-07-17T07:15:20.716Z,54.60
2018-07-17T07:17:48.817Z,52.30
2018-07-17T07:20:16.937Z,56.13
2018-07-17T07:22:45.107Z,56.30
2018-07-17T07:25:13.229Z,56.03
2018-07-17T07:27:41.394Z,55.40
2018-07-17T07:30:09.542Z,60.83
2018-07-17T07:32:38.250Z,53.77
2018-07-17T07:35:06.610Z,53.17
2018-07-17T07:37:40.523Z,51.77
2018-07-17T07:40:08.657Z,54.30
2018-07-17T07:42:36.825Z,53.00
2018-07-17T07:45:05.017Z,54.53
2018-07-17T07:47:33.189Z,52.13
2018-07-17T07:50:01.335Z,51.87
2018-07-17T07:52:29.488Z,52.17
2018-07-17T07:54:57.715Z,51.30
2018-07-17T07:57:25.889Z,53.17
2018-07-17T07:59:54.207Z,52.80
2018-07-17T08:02:22.635Z,54.37
2018-07-17T08:04:50.854Z,52.60
2018-07-17T08:07:19.471Z,51.50
2018-07-17T08:09:47.735Z,51.77
2018-07-17T08:12:15.992Z,52.30
2018-07-17T08:14:44.151Z,52.50
2018-07-17T08:17:12.265Z,49.73
2018-07-17T08:19:40.396Z,53.47
2018-07-17T08:22:08.534Z,52.43
2018-07-17T08:24:36.768Z,52.73
2018-07-17T08:27:04.913Z,51.03
2018-07-17T08:29:33.119Z,52.67
2018-07-17T08:32:01.263Z,52.00
2018-07-17T08:34:29.389Z,52.43
2018-07-17T08:36:57.574Z,52.50
2018-07-17T08:39:25.801Z,50.17
2018-07-17T08:41:54.083Z,54.07
2018-07-17T08:44:22.277Z,51.83
2018-07-17T08:46:50.660Z,51.70
2018-07-17T08:49:19.643Z,51.07
2018-07-17T08:51:48.021Z,50.10
2018-07-17T08:54:16.183Z,50.40
2018-07-17T08:56:44.330Z,51.60
2018-07-17T08:59:12.421Z,49.60
2018-07-17T09:01:40.658Z,51.57
2018-07-17T09:04:08.820Z,52.07
2018-07-17T09:06:36.986Z,51.90
2018-07-17T09:09:05.955Z,49.40
2018-07-17T09:11:34.100Z,50.07
2018-07-17T09:14:02.200Z,50.90
2018-07-17T09:16:30.370Z,50.33
2018-07-17T09:18:58.516Z,52.40
2018-07-17T09:21:26.807Z,52.30
2018-07-17T09:23:55.032Z,50.60
2018-07-17T09:26:23.422Z,49.57
2018-07-17T09:28:51.721Z,50.23
2018-07-17T09:31:20.684Z,53.80
2018-07-17T09:33:49.033Z,52.33
2018-07-17T09:36:17.346Z,51.30
2018-07-17T09:38:45.494Z,49.50
2018-07-17T09:41:13.633Z,48.90
2018-07-17T09:43:41.807Z,50.50
2018-07-17T09:46:09.951Z,52.17
2018-07-17T09:48:38.070Z,50.57
2018-07-17T09:51:06.913Z,49.67
2018-07-17T09:53:35.396Z,50.57
2018-07-17T09:56:03.503Z,49.07
2018-07-17T09:58:31.673Z,49.63
2018-07-17T10:01:05.211Z,49.37
2018-07-17T10:03:33.347Z,48.50
2018-07-17T10:06:01.476Z,49.80
2018-07-17T10:08:29.591Z,49.27
2018-07-17T10:10:57.785Z,49.90
2018-07-17T10:13:26.094Z,48.40
2018-07-17T10:15:54.342Z,49.03
2018-07-17T10:18:22.711Z,47.90
2018-07-17T10:20:52.435Z,50.57
2018-07-17T10:23:20.774Z,48.27
2018-07-17T10:25:49.403Z,48.50
2018-07-17T10:28:17.675Z,48.57
2018-07-17T10:30:45.805Z,54.63
2018-07-17T10:33:13.942Z,52.10
2018-07-17T10:35:42.116Z,49.63
2018-07-17T10:38:10.246Z,49.20
2018-07-17T10:40:38.379Z,49.90
2018-07-17T10:43:06.959Z,52.10
2018-07-17T10:45:35.094Z,49.17
2018-07-17T10:48:03.235Z,50.33
2018-07-17T10:50:31.370Z,50.60
2018-07-17T10:52:59.544Z,48.47
2018-07-17T10:55:27.766Z,48.00
2018-07-17T10:57:56.222Z,47.90
2018-07-17T11:00:25.148Z,50.13
2018-07-17T11:02:53.735Z,51.20
2018-07-17T11:05:22.325Z,48.90
2018-07-17T11:07:50.996Z,49.37
2018-07-17T11:10:20.176Z,48.40
2018-07-17T11:12:48.698Z,48.63
2018-07-17T11:15:16.858Z,50.80
2018-07-17T11:17:45.102Z,49.87
2018-07-17T11:20:13.291Z,60.20
2018-07-17T11:22:42.806Z,49.23
2018-07-17T11:25:10.951Z,48.40
2018-07-17T11:27:39.118Z,51.10
2018-07-17T11:30:07.688Z,50.97
2018-07-17T11:32:35.894Z,48.30
2018-07-17T11:35:04.339Z,47.60
2018-07-17T11:37:32.473Z,49.40
2018-07-17T11:40:00.624Z,49.83
2018-07-17T11:42:29.103Z,47.17
2018-07-17T11:44:57.377Z,47.50
2018-07-17T11:47:25.748Z,49.93
2018-07-17T11:49:54.867Z,48.57
2018-07-17T11:52:23.545Z,48.23
2018-07-17T11:54:52.362Z,47.70
2018-07-17T11:57:20.911Z,48.33
2018-07-17T11:59:49.691Z,48.33
2018-07-17T12:02:18.110Z,47.70
2018-07-17T12:04:46.346Z,47.50
2018-07-17T12:07:14.481Z,47.30
2018-07-17T12:09:42.681Z,49.30
2018-07-17T12:12:10.855Z,47.40
2018-07-17T12:14:39.013Z,48.00
2018-07-17T12:17:07.129Z,47.40
2018-07-17T12:19:35.282Z,47.57
2018-07-17T12:22:04.085Z,47.47
2018-07-17T12:24:32.301Z,47.23
2018-07-17T12:27:00.504Z,48.87
2018-07-17T12:29:28.628Z,50.40
2018-07-17T12:31:57.007Z,48.60
2018-07-17T12:34:25.566Z,50.23
2018-07-17T12:36:57.094Z,48.27
2018-07-17T12:39:25.406Z,49.10
2018-07-17T12:41:53.569Z,48.93
2018-07-17T12:44:21.880Z,47.60
2018-07-17T12:46:49.997Z,47.80
2018-07-17T12:49:18.578Z,48.00
2018-07-17T12:51:46.697Z,48.23
2018-07-17T12:54:14.899Z,47.87
2018-07-17T12:56:43.030Z,47.63
2018-07-17T12:59:11.210Z,47.30
2018-07-17T13:01:39.366Z,48.80
2018-07-17T13:04:07.520Z,50.30
2018-07-17T13:06:35.900Z,47.90
2018-07-17T13:09:07.159Z,48.73
2018-07-17T13:11:35.553Z,48.77
2018-07-17T13:14:03.731Z,48.40
2018-07-17T13:16:32.614Z,48.83
2018-07-17T13:19:00.790Z,47.43
2018-07-17T13:21:29.189Z,48.03
2018-07-17T13:23:58.653Z,47.80
2018-07-17T13:26:27.518Z,47.77
2018-07-17T13:28:56.228Z,46.80
2018-07-17T13:31:24.382Z,47.20
2018-07-17T13:33:52.587Z,47.60
2018-07-17T13:36:20.733Z,47.73
2018-07-17T13:38:48.869Z,50.50
2018-07-17T13:41:17.013Z,53.30
2018-07-17T13:43:45.203Z,48.07
2018-07-17T13:46:13.274Z,49.73
2018-07-17T13:48:41.414Z,47.60
2018-07-17T13:51:09.529Z,48.00
2018-07-17T13:53:37.681Z,48.50
2018-07-17T13:56:05.829Z,47.67
2018-07-17T13:58:33.959Z,47.60
2018-07-17T14:01:02.112Z,49.50
2018-07-17T14:03:31.192Z,48.80
2018-07-17T14:05:59.322Z,48.37
2018-07-17T14:08:27.447Z,48.33
2018-07-17T14:10:55.570Z,48.77
2018-07-17T14:13:23.721Z,48.03
2018-07-17T14:15:51.877Z,48.70
2018-07-17T14:18:20.023Z,47.93
2018-07-17T14:20:48.141Z,49.03
2018-07-17T14:23:16.287Z,49.50
2018-07-17T14:25:44.478Z,48.57
2018-07-17T14:28:13.253Z,48.37
2018-07-17T14:30:41.441Z,48.80
2018-07-17T14:33:09.561Z,49.80
2018-07-17T14:35:37.676Z,48.90
2018-07-17T14:38:05.829Z,51.93
2018-07-17T14:40:34.034Z,50.10
2018-07-17T14:43:02.177Z,49.47
2018-07-17T14:45:30.347Z,47.57
2018-07-17T14:47:58.489Z,49.27
2018-07-17T14:50:27.645Z,50.47
2018-07-17T14:52:55.800Z,51.97
2018-07-17T14:55:24.303Z,55.10
2018-07-17T14:57:53.641Z,50.97
2018-07-17T15:00:23.024Z,53.20
2018-07-17T15:02:53.690Z,51.20
2018-07-17T15:05:23.306Z,53.10
2018-07-17T15:07:51.512Z,55.03
2018-07-17T15:10:19.684Z,52.50
2018-07-17T15:12:47.831Z,52.10
2018-07-17T15:15:16.125Z,50.80
2018-07-17T15:17:44.296Z,54.37
2018-07-17T15:20:12.425Z,55.23
2018-07-17T15:22:40.648Z,54.90
2018-07-17T15:25:08.802Z,56.93
2018-07-17T15:27:36.996Z,53.43
2018-07-17T15:30:05.298Z,54.37
2018-07-17T15:32:33.495Z,53.20
2018-07-17T15:35:01.669Z,52.90
2018-07-17T15:37:30.098Z,53.20
2018-07-17T15:39:58.555Z,55.20
2018-07-17T15:42:26.944Z,52.77
2018-07-17T15:44:55.296Z,51.27
2018-07-17T15:47:23.999Z,50.73
2018-07-17T15:49:52.952Z,55.00
2018-07-17T15:52:21.761Z,52.07
2018-07-17T15:54:50.296Z,54.23
2018-07-17T15:57:19.362Z,50.90
2018-07-17T15:59:47.573Z,51.50
2018-07-17T16:02:15.661Z,50.80
2018-07-17T16:04:43.819Z,53.00
2018-07-17T16:07:11.974Z,51.20
2018-07-17T16:09:40.134Z,49.60
2018-07-17T16:12:08.432Z,51.87
2018-07-17T16:14:36.683Z,54.97
2018-07-17T16:17:05.369Z,52.10
2018-07-17T16:19:33.683Z,54.67
2018-07-17T16:22:01.937Z,53.00
2018-07-17T16:24:30.237Z,51.37
2018-07-17T16:26:58.709Z,51.20
2018-07-17T16:29:27.220Z,53.27
2018-07-17T16:31:56.022Z,51.67
2018-07-17T16:34:24.845Z,49.33
2018-07-17T16:36:53.404Z,49.90
2018-07-17T16:39:21.883Z,49.57
2018-07-17T16:41:50.874Z,52.20
2018-07-17T16:44:20.834Z,50.27
2018-07-17T16:46:49.162Z,50.67
2018-07-17T16:49:17.438Z,51.90
2018-07-17T16:51:45.602Z,49.97
2018-07-17T16:54:15.833Z,50.40
2018-07-17T16:56:43.938Z,53.87
2018-07-17T16:59:12.214Z,50.37
2018-07-17T17:01:40.387Z,50.50
2018-07-17T17:04:08.593Z,51.00
2018-07-17T17:06:36.794Z,48.73
2018-07-17T17:09:08.244Z,50.23
2018-07-17T17:11:36.410Z,48.50
2018-07-17T17:14:04.605Z,52.77
2018-07-17T17:16:32.922Z,51.30
2018-07-17T17:19:02.037Z,50.80
2018-07-17T17:21:30.159Z,49.93
2018-07-17T17:23:58.381Z,52.80
2018-07-17T17:26:26.465Z,50.90
2018-07-17T17:28:54.715Z,49.43
2018-07-17T17:31:22.957Z,50.70
2018-07-17T17:33:51.948Z,50.17
2018-07-17T17:36:21.249Z,49.70
2018-07-17T17:38:49.993Z,49.87
2018-07-17T17:41:19.094Z,51.30
2018-07-17T17:43:47.999Z,49.67
2018-07-17T17:46:16.233Z,51.27
2018-07-17T17:48:44.398Z,52.60
2018-07-17T17:51:12.539Z,64.50
2018-07-17T17:53:40.678Z,64.23
2018-07-17T17:56:08.848Z,50.77
2018-07-17T17:58:36.990Z,49.97
2018-07-17T18:01:05.162Z,50.00
2018-07-17T18:03:33.543Z,49.67
2018-07-17T18:06:02.041Z,50.10
2018-07-17T18:08:31.747Z,52.30
2018-07-17T18:11:00.129Z,50.20
2018-07-17T18:13:35.617Z,50.17
2018-07-17T18:16:03.831Z,52.20
2018-07-17T18:18:32.302Z,50.47
2018-07-17T18:21:01.218Z,53.70
2018-07-17T18:23:29.428Z,53.10
2018-07-17T18:25:57.694Z,52.00
2018-07-17T18:28:25.834Z,52.87
2018-07-17T18:30:53.997Z,52.30
2018-07-17T18:33:22.146Z,53.10
2018-07-17T18:35:50.382Z,51.30
2018-07-17T18:38:18.729Z,53.90
2018-07-17T18:40:46.871Z,51.50
2018-07-17T18:43:15.194Z,50.80
2018-07-17T18:45:43.421Z,52.40
2018-07-17T18:48:11.666Z,53.53
2018-07-17T18:50:39.786Z,50.10
2018-07-17T18:53:08.270Z,52.40
2018-07-17T18:55:36.625Z,55.60
2018-07-17T18:58:05.435Z,52.97
2018-07-17T19:00:34.408Z,55.00
2018-07-17T19:03:04.084Z,53.60
2018-07-17T19:05:32.957Z,54.80
2018-07-17T19:08:02.066Z,50.83
2018-07-17T19:10:30.552Z,49.53
2018-07-17T19:12:58.967Z,50.63
2018-07-17T19:15:27.187Z,53.20
2018-07-17T19:17:55.336Z,55.47
2018-07-17T19:20:23.527Z,52.73
2018-07-17T19:22:51.739Z,52.03
2018-07-17T19:25:19.988Z,52.03
2018-07-17T19:27:48.592Z,51.90
2018-07-17T19:30:16.681Z,53.27
2018-07-17T19:32:45.109Z,51.77
2018-07-17T19:35:13.765Z,52.00
2018-07-17T19:37:41.923Z,51.93
2018-07-17T19:40:10.116Z,56.83
2018-07-17T19:42:38.326Z,52.00
2018-07-17T19:45:06.636Z,51.17
2018-07-17T19:47:35.842Z,52.17
2018-07-17T19:50:06.885Z,52.83
2018-07-17T19:52:35.834Z,51.00
2018-07-17T19:55:05.503Z,50.90
2018-07-17T19:57:35.828Z,51.90
2018-07-17T20:00:05.907Z,51.00
2018-07-17T20:02:34.494Z,52.70
2018-07-17T20:05:03.831Z,54.63
2018-07-17T20:07:34.197Z,52.17
2018-07-17T20:10:02.897Z,54.27
2018-07-17T20:12:32.775Z,52.00
2018-07-17T20:15:02.069Z,53.50
2018-07-17T20:17:31.252Z,52.20
2018-07-17T20:20:00.357Z,52.13
2018-07-17T20:22:28.492Z,52.30
2018-07-17T20:24:56.698Z,51.20
2018-07-17T20:27:24.861Z,53.40
2018-07-17T20:29:53.054Z,53.97
2018-07-17T20:32:21.219Z,50.63
2018-07-17T20:34:49.366Z,53.90
2018-07-17T20:37:17.525Z,58.60
2018-07-17T20:39:45.677Z,52.57
2018-07-17T20:42:13.861Z,58.30
2018-07-17T20:44:42.130Z,53.20
2018-07-17T20:47:10.665Z,53.63
2018-07-17T20:49:39.378Z,54.00
2018-07-17T20:52:09.492Z,53.07
2018-07-17T20:54:38.826Z,51.80
2018-07-17T20:57:08.164Z,55.03
2018-07-17T20:59:37.925Z,55.63
2018-07-17T21:02:07.111Z,57.60
2018-07-17T21:04:36.641Z,70.80
2018-07-17T21:07:06.530Z,58.90
2018-07-17T21:09:36.583Z,51.27
2018-07-17T21:12:05.466Z,52.30
2018-07-17T21:14:34.390Z,52.93
2018-07-17T21:17:03.415Z,55.67
2018-07-17T21:19:31.666Z,55.47
2018-07-17T21:22:00.095Z,53.37
2018-07-17T21:24:28.174Z,54.40
2018-07-17T21:26:56.277Z,51.80
2018-07-17T21:29:24.362Z,56.40
2018-07-17T21:31:52.474Z,54.93
2018-07-17T21:34:20.593Z,54.10
2018-07-17T21:36:48.685Z,54.97
2018-07-17T21:39:16.814Z,54.67
2018-07-17T21:41:44.905Z,56.60
2018-07-17T21:44:13.310Z,54.47
2018-07-17T21:46:41.803Z,55.20
2018-07-17T21:49:09.890Z,54.40
2018-07-17T21:51:37.989Z,56.30
2018-07-17T21:54:06.412Z,54.60
2018-07-17T21:56:34.533Z,56.57
2018-07-17T21:59:02.646Z,53.97
2018-07-17T22:01:30.853Z,56.30
2018-07-17T22:03:59.020Z,55.67
2018-07-17T22:06:27.447Z,58.33
2018-07-17T22:08:55.671Z,53.90
2018-07-17T22:11:24.365Z,54.90
2018-07-17T22:13:52.455Z,54.70
2018-07-17T22:16:20.598Z,59.47
2018-07-17T22:18:48.715Z,53.90
2018-07-17T22:21:16.957Z,55.43
2018-07-17T22:23:45.114Z,56.83
2018-07-17T22:26:13.201Z,58.20
2018-07-17T22:28:41.306Z,56.83
2018-07-17T22:31:09.447Z,56.23
2018-07-17T22:33:37.556Z,56.30
2018-07-17T22:36:05.673Z,54.87
2018-07-17T22:38:33.765Z,55.60
2018-07-17T22:41:01.870Z,56.23
2018-07-17T22:43:29.970Z,54.97
2018-07-17T22:45:58.063Z,56.50
2018-07-17T22:48:26.169Z,57.20
2018-07-17T22:50:54.290Z,55.70
2018-07-17T22:53:22.455Z,54.67
2018-07-17T22:55:50.646Z,56.77
2018-07-17T22:58:18.777Z,55.40
2018-07-17T23:00:46.926Z,57.43
2018-07-17T23:03:15.048Z,55.47
2018-07-17T23:05:43.143Z,55.73
2018-07-17T23:08:11.294Z,60.17
2018-07-17T23:10:40.383Z,58.30
2018-07-17T23:13:08.474Z,56.70
2018-07-17T23:15:36.561Z,59.07
2018-07-17T23:18:04.643Z,56.20
2018-07-17T23:20:32.760Z,57.90
2018-07-17T23:23:00.875Z,53.77
2018-07-17T23:25:30.569Z,54.70
2018-07-17T23:27:59.344Z,54.77
2018-07-17T23:30:27.469Z,55.27
2018-07-17T23:32:55.572Z,60.70
2018-07-17T23:35:24.617Z,55.20
2018-07-17T23:37:53.194Z,55.10
2018-07-17T23:40:21.910Z,55.57
2018-07-17T23:42:50.081Z,53.80
2018-07-17T23:45:18.589Z,57.00
2018-07-17T23:47:47.500Z,55.30
2018-07-17T23:50:15.605Z,53.67
2018-07-17T23:52:43.686Z,54.17
2018-07-17T23:55:11.806Z,54.80
2018-07-17T23:57:39.890Z,57.00
